createdAt,value
2018-04-02T00:00:13.379Z,4.30
2018-04-02T00:02:42.171Z,4.30
2018-04-02T00:05:10.972Z,4.20
2018-04-02T00:07:39.766Z,4.30
2018-04-02T00:10:08.587Z,4.20
2018-04-02T00:12:37.388Z,4.10
2018-04-02T00:15:05.862Z,4.10
2018-04-02T00:17:34.661Z,4.30
2018-04-02T00:20:03.466Z,4.10
2018-04-02T00:22:33.035Z,4.30
2018-04-02T00:25:01.855Z,4.30
2018-04-02T00:27:31.086Z,4.20
2018-04-02T00:29:59.887Z,4.20
2018-04-02T00:32:28.684Z,4.10
2018-04-02T00:34:57.486Z,3.90
2018-04-02T00:37:26.293Z,3.90
2018-04-02T00:39:55.095Z,3.90
2018-04-02T00:42:23.896Z,4.00
2018-04-02T00:44:52.691Z,4.00
2018-04-02T00:47:22.256Z,3.90
2018-04-02T00:49:51.064Z,3.80
2018-04-02T00:52:19.854Z,3.80
2018-04-02T00:54:48.660Z,3.90
2018-04-02T00:57:17.146Z,3.90
2018-04-02T00:59:46.715Z,3.70
2018-04-02T01:02:15.523Z,3.70
2018-04-02T01:04:44.320Z,3.70
2018-04-02T01:07:13.150Z,3.60
2018-04-02T01:09:41.956Z,3.70
2018-04-02T01:12:10.755Z,3.70
2018-04-02T01:14:39.579Z,3.80
2018-04-02T01:17:08.374Z,3.80
2018-04-02T01:19:37.177Z,3.70
2018-04-02T01:22:06.867Z,3.70
2018-04-02T01:24:35.675Z,3.70
2018-04-02T01:27:05.242Z,3.70
2018-04-02T01:29:33.826Z,3.70
2018-04-02T01:32:02.627Z,3.60
2018-04-02T01:34:31.470Z,3.70
2018-04-02T01:37:00.277Z,3.60
2018-04-02T01:39:29.070Z,3.60
2018-04-02T01:41:57.869Z,3.50
2018-04-02T01:44:26.687Z,3.60
2018-04-02T01:46:55.251Z,3.80
2018-04-02T01:49:24.060Z,3.80
2018-04-02T01:51:52.868Z,3.80
2018-04-02T01:54:22.428Z,4.20
2018-04-02T01:56:51.220Z,4.20
2018-04-02T01:59:20.024Z,4.10
2018-04-02T02:01:48.847Z,4.00
2018-04-02T02:04:18.412Z,3.90
2018-04-02T02:06:46.980Z,3.90
2018-04-02T02:09:15.775Z,3.80
2018-04-02T02:11:44.572Z,3.90
2018-04-02T02:14:13.368Z,3.80
2018-04-02T02:16:42.163Z,3.80
2018-04-02T02:19:10.971Z,3.90
2018-04-02T02:21:39.766Z,4.00
2018-04-02T02:24:08.563Z,4.20
2018-04-02T02:26:37.907Z,4.00
2018-04-02T02:29:06.707Z,4.00
2018-04-02T02:31:35.163Z,4.00
2018-04-02T02:34:03.979Z,3.90
2018-04-02T02:36:32.452Z,3.90
2018-04-02T02:39:01.272Z,3.90
2018-04-02T02:41:30.067Z,4.00
2018-04-02T02:43:58.863Z,4.20
2018-04-02T02:46:27.662Z,4.10
2018-04-02T02:48:57.224Z,3.90
2018-04-02T02:51:26.032Z,3.90
2018-04-02T02:53:54.841Z,4.20
2018-04-02T02:56:23.628Z,4.20
2018-04-02T02:58:52.693Z,4.20
2018-04-02T03:01:21.512Z,4.10
2018-04-02T03:03:50.325Z,4.00
2018-04-02T03:06:19.883Z,4.00
2018-04-02T03:08:48.688Z,4.00
2018-04-02T03:11:17.493Z,4.00
2018-04-02T03:13:45.978Z,4.10
2018-04-02T03:16:14.691Z,4.00
2018-04-02T03:18:44.169Z,3.90
2018-04-02T03:21:12.887Z,3.80
2018-04-02T03:23:42.357Z,3.90
2018-04-02T03:26:11.071Z,3.90
2018-04-02T03:28:39.783Z,3.90
2018-04-02T03:31:08.492Z,4.00
2018-04-02T03:33:37.200Z,4.00
2018-04-02T03:36:05.906Z,4.00
2018-04-02T03:38:34.614Z,3.90
2018-04-02T03:41:04.087Z,3.90
2018-04-02T03:43:32.799Z,3.80
2018-04-02T03:46:01.511Z,3.80
2018-04-02T03:48:30.989Z,3.70
2018-04-02T03:51:00.471Z,3.80
2018-04-02T03:53:28.943Z,3.80
2018-04-02T03:55:57.645Z,3.80
2018-04-02T03:58:26.375Z,3.70
2018-04-02T04:00:55.083Z,3.70
2018-04-02T04:03:23.810Z,3.80
2018-04-02T04:05:52.521Z,3.80
2018-04-02T04:08:22.003Z,3.70
2018-04-02T04:10:50.722Z,3.60
2018-04-02T04:13:20.207Z,3.70
2018-04-02T04:15:48.917Z,3.70
2018-04-02T04:18:18.388Z,3.70
2018-04-02T04:20:47.096Z,3.70
2018-04-02T04:23:16.571Z,3.60
2018-04-02T04:25:45.275Z,3.60
2018-04-02T04:28:13.988Z,3.50
2018-04-02T04:30:43.490Z,3.50
2018-04-02T04:33:12.951Z,3.50
2018-04-02T04:35:41.669Z,3.50
2018-04-02T04:38:10.378Z,3.70
2018-04-02T04:40:39.850Z,3.60
2018-04-02T04:43:08.552Z,3.60
2018-04-02T04:45:37.252Z,3.60
2018-04-02T04:48:06.726Z,3.60
2018-04-02T04:50:35.223Z,3.60
2018-04-02T04:53:03.867Z,3.60
2018-04-02T04:55:32.574Z,3.50
2018-04-02T04:58:01.276Z,3.60
2018-04-02T05:00:29.984Z,3.60
2018-04-02T05:02:59.458Z,3.50
2018-04-02T05:05:27.938Z,3.50
2018-04-02T05:07:56.651Z,3.40
2018-04-02T05:10:25.358Z,3.50
2018-04-02T05:12:54.066Z,3.60
2018-04-02T05:15:22.778Z,3.50
2018-04-02T05:17:51.487Z,3.50
2018-04-02T05:20:20.196Z,3.40
2018-04-02T05:22:49.669Z,3.30
2018-04-02T05:25:18.051Z,3.30
2018-04-02T05:27:46.769Z,3.30
2018-04-02T05:30:16.258Z,3.40
2018-04-02T05:32:44.949Z,3.40
2018-04-02T05:35:13.662Z,3.40
2018-04-02T05:37:43.138Z,3.40
2018-04-02T05:40:11.846Z,3.40
2018-04-02T05:42:40.555Z,3.40
2018-04-02T05:45:09.258Z,3.40
2018-04-02T05:47:37.970Z,3.40
2018-04-02T05:50:06.347Z,3.40
2018-04-02T05:52:35.046Z,3.50
2018-04-02T05:55:03.419Z,3.60
2018-04-02T05:57:33.038Z,3.60
2018-04-02T06:00:01.739Z,3.50
2018-04-02T06:02:30.446Z,3.50
2018-04-02T06:04:59.926Z,3.60
2018-04-02T06:07:28.652Z,3.60
2018-04-02T06:09:57.367Z,3.60
2018-04-02T06:12:26.073Z,3.70
2018-04-02T06:14:54.793Z,3.80
2018-04-02T06:17:24.296Z,4.00
2018-04-02T06:19:53.775Z,4.00
2018-04-02T06:22:22.528Z,4.00
2018-04-02T06:24:51.444Z,4.10
2018-04-02T06:27:21.067Z,4.20
2018-04-02T06:29:49.779Z,4.20
2018-04-02T06:32:19.031Z,4.20
2018-04-02T06:34:47.750Z,4.20
2018-04-02T06:37:16.227Z,4.30
2018-04-02T06:39:44.943Z,4.40
2018-04-02T06:42:14.420Z,4.60
2018-04-02T06:44:43.134Z,4.60
2018-04-02T06:47:12.343Z,4.70
2018-04-02T06:49:41.054Z,4.70
2018-04-02T06:52:09.796Z,4.70
2018-04-02T06:54:39.274Z,4.60
2018-04-02T06:57:07.981Z,4.60
2018-04-02T06:59:36.690Z,4.70
2018-04-02T07:04:52.519Z,4.80
2018-04-02T07:07:21.241Z,4.90
2018-04-02T07:09:49.955Z,4.80
2018-04-02T07:12:18.655Z,4.80
2018-04-02T07:14:49.046Z,4.90
2018-04-02T07:17:17.768Z,4.90
2018-04-02T07:19:47.238Z,5.10
2018-04-02T07:22:15.714Z,5.10
2018-04-02T07:24:44.422Z,5.20
2018-04-02T07:27:13.996Z,5.30
2018-04-02T07:29:42.722Z,5.30
2018-04-02T07:32:11.428Z,5.40
2018-04-02T07:34:40.574Z,5.60
2018-04-02T07:37:11.086Z,5.50
2018-04-02T07:39:39.818Z,5.60
2018-04-02T07:42:08.530Z,5.70
2018-04-02T07:44:38.003Z,5.80
2018-04-02T07:47:07.340Z,5.80
2018-04-02T07:49:36.597Z,6.10
2018-04-02T07:52:06.156Z,6.10
2018-04-02T07:54:35.627Z,6.30
2018-04-02T07:57:05.725Z,6.30
2018-04-02T07:59:34.640Z,6.30
2018-04-02T08:02:03.352Z,6.20
2018-04-02T08:04:32.830Z,6.30
2018-04-02T08:07:01.537Z,6.30
2018-04-02T08:09:31.011Z,6.40
2018-04-02T08:11:59.722Z,6.40
2018-04-02T08:14:28.426Z,6.30
2018-04-02T08:16:57.903Z,6.40
2018-04-02T08:19:26.615Z,6.40
2018-04-02T08:21:56.086Z,6.50
2018-04-02T08:24:24.809Z,6.50
2018-04-02T08:26:54.298Z,6.60
2018-04-02T08:29:23.020Z,6.60
2018-04-02T08:31:51.730Z,6.60
2018-04-02T08:34:20.446Z,6.70
2018-04-02T08:36:49.150Z,6.80
2018-04-02T08:39:17.630Z,6.80
2018-04-02T08:41:46.347Z,6.80
2018-04-02T08:44:15.085Z,6.80
2018-04-02T08:46:43.974Z,6.80
2018-04-02T08:49:12.691Z,6.90
2018-04-02T08:51:42.172Z,7.10
2018-04-02T08:54:10.885Z,7.10
2018-04-02T08:56:40.142Z,7.10
2018-04-02T08:59:08.646Z,7.10
2018-04-02T09:01:38.050Z,7.10
2018-04-02T09:04:06.787Z,7.20
2018-04-02T09:06:35.505Z,7.30
2018-04-02T09:09:03.353Z,7.40
2018-04-02T09:11:32.134Z,7.40
2018-04-02T09:14:00.850Z,7.40
2018-04-02T09:16:30.187Z,7.30
2018-04-02T09:18:58.907Z,7.40
2018-04-02T09:21:28.002Z,7.40
2018-04-02T09:23:57.687Z,7.50
2018-04-02T09:26:26.494Z,7.60
2018-04-02T09:28:55.618Z,7.70
2018-04-02T09:31:24.123Z,7.90
2018-04-02T09:33:52.616Z,7.80
2018-04-02T09:36:22.527Z,7.70
2018-04-02T09:38:51.254Z,7.80
2018-04-02T09:41:21.258Z,7.60
2018-04-02T09:43:50.007Z,7.60
2018-04-02T09:46:18.758Z,7.80
2018-04-02T09:48:49.203Z,8.00
2018-04-02T09:51:17.660Z,8.00
2018-04-02T09:53:47.147Z,8.00
2018-04-02T09:56:15.564Z,8.00
2018-04-02T09:58:44.311Z,8.10
2018-04-02T10:01:14.914Z,8.20
2018-04-02T10:03:49.083Z,8.20
2018-04-02T10:06:18.850Z,8.20
2018-04-02T10:08:48.238Z,8.20
2018-04-02T10:11:16.959Z,8.30
2018-04-02T10:13:45.688Z,8.50
2018-04-02T10:16:14.415Z,8.80
2018-04-02T10:18:43.138Z,9.00
2018-04-02T10:21:12.622Z,9.00
2018-04-02T10:23:41.354Z,8.90
2018-04-02T10:26:10.104Z,9.30
2018-04-02T10:28:39.007Z,9.30
2018-04-02T10:31:08.635Z,9.50
2018-04-02T10:33:38.118Z,9.50
2018-04-02T10:36:07.745Z,9.50
2018-04-02T10:38:37.226Z,9.80
2018-04-02T10:41:05.956Z,9.80
2018-04-02T10:43:34.696Z,10.20
2018-04-02T10:46:03.427Z,10.20
2018-04-02T10:48:32.189Z,10.50
2018-04-02T10:51:01.080Z,10.80
2018-04-02T10:53:29.808Z,11.00
2018-04-02T10:55:58.522Z,10.80
2018-04-02T10:58:26.914Z,10.90
2018-04-02T11:00:55.638Z,11.10
2018-04-02T11:03:25.114Z,11.40
2018-04-02T11:05:53.827Z,11.30
2018-04-02T11:08:23.343Z,11.50
2018-04-02T11:10:52.276Z,11.50
2018-04-02T11:13:21.003Z,11.50
2018-04-02T11:15:49.716Z,11.50
2018-04-02T11:18:19.206Z,11.20
2018-04-02T11:20:48.513Z,11.20
2018-04-02T11:23:17.713Z,11.40
2018-04-02T11:25:47.194Z,11.50
2018-04-02T11:28:15.916Z,11.40
2018-04-02T11:30:45.407Z,12.00
2018-04-02T11:33:14.907Z,12.20
2018-04-02T11:35:44.162Z,12.10
2018-04-02T11:38:12.886Z,12.10
2018-04-02T11:40:41.374Z,12.00
2018-04-02T11:43:10.098Z,11.90
2018-04-02T11:45:39.467Z,11.80
2018-04-02T11:48:08.226Z,11.80
2018-04-02T11:50:37.885Z,11.80
2018-04-02T11:53:09.587Z,11.70
2018-04-02T11:55:38.319Z,11.70
2018-04-02T11:58:07.808Z,11.70
2018-04-02T12:00:36.327Z,11.70
2018-04-02T12:03:05.054Z,11.80
2018-04-02T12:05:33.793Z,11.90
2018-04-02T12:08:03.274Z,12.20
2018-04-02T12:10:32.008Z,12.20
2018-04-02T12:13:00.750Z,12.50
2018-04-02T12:15:30.889Z,12.80
2018-04-02T12:18:00.393Z,12.90
2018-04-02T12:20:30.846Z,13.10
2018-04-02T12:22:59.352Z,13.10
2018-04-02T12:25:28.075Z,13.30
2018-04-02T12:27:56.794Z,13.50
2018-04-02T12:30:25.178Z,13.90
2018-04-02T12:32:53.911Z,14.10
2018-04-02T12:35:22.634Z,14.10
2018-04-02T12:37:52.144Z,14.20
2018-04-02T12:40:21.644Z,14.20
2018-04-02T12:42:51.137Z,14.40
2018-04-02T12:45:19.543Z,14.40
2018-04-02T12:47:49.033Z,14.70
2018-04-02T12:50:18.537Z,14.50
2018-04-02T12:52:47.251Z,14.50
2018-04-02T12:55:15.992Z,14.50
2018-04-02T12:57:44.706Z,14.40
2018-04-02T13:00:13.418Z,14.30
2018-04-02T13:02:42.142Z,14.30
2018-04-02T13:05:10.863Z,14.20
2018-04-02T13:07:39.559Z,14.10
2018-04-02T13:10:09.051Z,14.00
2018-04-02T13:12:37.448Z,14.00
2018-04-02T13:15:08.351Z,14.00
2018-04-02T13:17:38.909Z,13.90
2018-04-02T13:20:09.107Z,13.90
2018-04-02T13:22:52.574Z,13.90
2018-04-02T13:25:22.077Z,14.20
2018-04-02T13:27:58.012Z,14.40
2018-04-02T13:30:39.084Z,14.40
2018-04-02T13:33:24.779Z,14.30
2018-04-02T13:35:53.693Z,14.40
2018-04-02T13:38:23.185Z,14.40
2018-04-02T13:40:52.683Z,14.50
2018-04-02T13:43:22.566Z,14.50
2018-04-02T13:45:51.293Z,14.60
2018-04-02T13:48:20.024Z,14.70
2018-04-02T13:50:48.787Z,14.80
2018-04-02T13:53:18.279Z,15.00
2018-04-02T13:55:47.763Z,15.00
2018-04-02T13:58:16.156Z,15.00
2018-04-02T14:00:44.889Z,15.10
2018-04-02T14:03:13.610Z,15.10
2018-04-02T14:05:42.351Z,15.30
2018-04-02T14:08:11.084Z,15.50
2018-04-02T14:10:39.819Z,15.50
2018-04-02T14:13:09.305Z,15.70
2018-04-02T14:15:38.032Z,15.70
2018-04-02T14:18:06.767Z,15.70
2018-04-02T14:20:35.260Z,15.70
2018-04-02T14:23:03.995Z,15.90
2018-04-02T14:25:32.910Z,15.90
2018-04-02T14:28:01.635Z,16.00
2018-04-02T14:30:31.123Z,16.30
2018-04-02T14:32:59.862Z,16.30
2018-04-02T14:35:28.373Z,16.20
2018-04-02T14:37:57.262Z,16.20
2018-04-02T14:40:25.999Z,16.20
2018-04-02T14:42:55.490Z,16.10
2018-04-02T14:45:24.215Z,16.10
2018-04-02T14:47:53.687Z,16.00
2018-04-02T14:50:22.411Z,15.90
2018-04-02T14:52:51.184Z,15.90
2018-04-02T14:55:20.671Z,16.20
2018-04-02T14:57:49.392Z,16.10
2018-04-02T15:00:18.115Z,16.30
2018-04-02T15:02:46.851Z,16.50
2018-04-02T15:05:16.343Z,16.20
2018-04-02T15:07:45.495Z,16.30
2018-04-02T15:10:14.264Z,16.30
2018-04-02T15:12:42.984Z,16.40
2018-04-02T15:15:11.710Z,16.40
2018-04-02T15:17:41.211Z,16.40
2018-04-02T15:20:09.716Z,16.40
2018-04-02T15:22:38.438Z,16.30
2018-04-02T15:25:07.172Z,16.20
2018-04-02T15:27:36.672Z,16.20
2018-04-02T15:30:05.499Z,16.40
2018-04-02T15:32:34.218Z,16.40
2018-04-02T15:35:02.951Z,16.50
2018-04-02T15:37:32.430Z,16.50
2018-04-02T15:40:01.161Z,16.50
2018-04-02T15:42:29.898Z,16.40
2018-04-02T15:44:58.614Z,16.50
2018-04-02T15:47:28.100Z,16.20
2018-04-02T15:49:56.822Z,16.20
2018-04-02T15:52:26.313Z,16.20
2018-04-02T15:54:55.810Z,16.20
2018-04-02T15:57:25.935Z,16.10
2018-04-02T15:59:54.658Z,16.10
2018-04-02T16:02:23.389Z,16.10
2018-04-02T16:04:52.888Z,16.10
2018-04-02T16:07:21.635Z,16.00
2018-04-02T16:09:50.366Z,16.00
2018-04-02T16:12:19.091Z,15.70
2018-04-02T16:14:48.569Z,15.40
2018-04-02T16:17:17.289Z,15.40
2018-04-02T16:19:46.771Z,15.40
2018-04-02T16:22:15.500Z,15.40
2018-04-02T16:24:44.239Z,15.50
2018-04-02T16:27:12.964Z,15.40
2018-04-02T16:29:41.696Z,15.00
2018-04-02T16:32:10.422Z,15.10
2018-04-02T16:34:39.915Z,15.20
2018-04-02T16:37:08.671Z,15.20
2018-04-02T16:39:37.539Z,14.90
2018-04-02T16:42:06.032Z,14.70
2018-04-02T16:44:34.755Z,14.60
2018-04-02T16:47:03.498Z,14.40
2018-04-02T16:49:32.219Z,14.30
2018-04-02T16:52:00.961Z,14.20
2018-04-02T16:54:30.462Z,14.00
2018-04-02T16:56:59.965Z,14.00
2018-04-02T16:59:29.456Z,14.00
2018-04-02T17:01:58.175Z,13.90
2018-04-02T17:04:26.928Z,13.90
2018-04-02T17:06:55.740Z,13.80
2018-04-02T17:09:25.252Z,13.70
2018-04-02T17:11:53.414Z,13.70
2018-04-02T17:14:21.896Z,13.70
2018-04-02T17:16:51.395Z,13.50
2018-04-02T17:19:20.933Z,13.50
2018-04-02T17:21:50.038Z,13.40
2018-04-02T17:24:18.763Z,13.40
2018-04-02T17:26:47.273Z,13.30
2018-04-02T17:29:16.530Z,13.20
2018-04-02T17:31:45.248Z,13.20
2018-04-02T17:34:13.636Z,13.10
2018-04-02T17:36:42.355Z,13.10
2018-04-02T17:39:11.075Z,13.00
2018-04-02T17:41:39.581Z,12.90
2018-04-02T17:44:08.298Z,12.90
2018-04-02T17:46:37.058Z,12.70
2018-04-02T17:49:05.455Z,12.70
2018-04-02T17:51:34.180Z,12.60
2018-04-02T17:54:02.910Z,12.50
2018-04-02T17:56:31.417Z,12.40
2018-04-02T17:59:00.127Z,12.30
2018-04-02T18:01:28.842Z,12.30
2018-04-02T18:03:57.571Z,12.20
2018-04-02T18:06:26.306Z,12.10
2018-04-02T18:08:55.966Z,12.00
2018-04-02T18:11:24.679Z,12.00
2018-04-02T18:13:54.208Z,11.90
2018-04-02T18:16:23.062Z,11.90
2018-04-02T18:18:52.678Z,11.80
2018-04-02T18:21:22.187Z,11.70
2018-04-02T18:23:51.706Z,11.60
2018-04-02T18:26:21.196Z,11.60
2018-04-02T18:28:50.680Z,11.40
2018-04-02T18:31:19.500Z,11.40
2018-04-02T18:33:48.222Z,11.40
2018-04-02T18:36:16.944Z,11.30
2018-04-02T18:38:45.436Z,11.20
2018-04-02T18:41:14.165Z,11.20
2018-04-02T18:43:42.895Z,11.10
2018-04-02T18:46:11.613Z,11.10
2018-04-02T18:48:41.091Z,11.00
2018-04-02T18:51:09.502Z,11.00
2018-04-02T18:53:38.995Z,10.80
2018-04-02T18:56:08.831Z,10.70
2018-04-02T18:58:37.710Z,10.70
2018-04-02T19:01:07.190Z,10.60
2018-04-02T19:03:35.926Z,10.60
2018-04-02T19:06:04.643Z,10.60
2018-04-02T19:08:33.366Z,10.60
2018-04-02T19:11:02.088Z,10.50
2018-04-02T19:13:30.856Z,10.50
2018-04-02T19:16:00.349Z,10.40
2018-04-02T19:18:29.074Z,10.40
2018-04-02T19:20:58.208Z,10.40
2018-04-02T19:23:27.038Z,10.30
2018-04-02T19:25:56.536Z,10.20
2018-04-02T19:28:26.026Z,10.20
2018-04-02T19:30:54.746Z,10.20
2018-04-02T19:33:23.499Z,10.10
2018-04-02T19:35:52.236Z,10.20
2018-04-02T19:38:20.963Z,11.00
2018-04-02T19:40:49.684Z,11.60
2018-04-02T19:43:19.186Z,12.20
2018-04-02T19:45:48.447Z,12.20
2018-04-02T19:48:17.162Z,12.20
2018-04-02T19:50:45.882Z,12.40
2018-04-02T19:53:15.381Z,12.70
2018-04-02T19:55:44.870Z,12.70
2018-04-02T19:58:13.367Z,12.70
2018-04-02T20:00:42.519Z,12.80
2018-04-02T20:03:11.231Z,12.80
2018-04-02T20:05:39.952Z,12.50
2018-04-02T20:08:08.687Z,11.90
2018-04-02T20:10:37.179Z,11.40
2018-04-02T20:13:05.899Z,11.00
2018-04-02T20:15:35.387Z,10.50
2018-04-02T20:18:03.771Z,10.50
2018-04-02T20:20:32.951Z,10.40
2018-04-02T20:23:01.728Z,10.30
2018-04-02T20:25:31.370Z,10.00
2018-04-02T20:28:00.089Z,10.00
2018-04-02T20:30:28.818Z,10.00
2018-04-02T20:32:57.542Z,9.90
2018-04-02T20:35:27.033Z,9.70
2018-04-02T20:37:55.752Z,9.70
2018-04-02T20:40:24.495Z,9.60
2018-04-02T20:42:53.403Z,9.60
2018-04-02T20:45:22.131Z,9.50
2018-04-02T20:47:50.849Z,9.50
2018-04-02T20:50:19.561Z,9.50
2018-04-02T20:52:48.278Z,9.50
2018-04-02T20:55:17.763Z,9.40
2018-04-02T20:57:47.253Z,9.40
2018-04-02T21:00:15.976Z,9.30
2018-04-02T21:02:44.699Z,9.30
2018-04-02T21:05:13.427Z,9.30
2018-04-02T21:07:42.132Z,9.30
2018-04-02T21:10:10.867Z,9.20
2018-04-02T21:12:39.589Z,9.20
2018-04-02T21:15:08.304Z,9.20
2018-04-02T21:17:37.031Z,9.20
2018-04-02T21:20:05.808Z,9.20
2018-04-02T21:22:34.669Z,9.20
2018-04-02T21:25:03.051Z,9.20
2018-04-02T21:27:31.783Z,9.20
2018-04-02T21:30:00.540Z,9.10
2018-04-02T21:32:29.427Z,9.20
2018-04-02T21:34:58.158Z,9.10
2018-04-02T21:37:26.894Z,9.10
2018-04-02T21:39:55.624Z,9.10
2018-04-02T21:42:24.330Z,9.10
2018-04-02T21:44:53.047Z,9.10
2018-04-02T21:47:22.543Z,9.10
2018-04-02T21:49:52.023Z,9.20
2018-04-02T21:52:20.742Z,9.10
2018-04-02T21:54:50.223Z,9.20
2018-04-02T21:57:18.943Z,9.20
2018-04-02T21:59:48.431Z,9.30
2018-04-02T22:02:17.143Z,9.30
2018-04-02T22:04:45.863Z,9.30
2018-04-02T22:07:13.912Z,9.30
2018-04-02T22:09:42.630Z,9.30
2018-04-02T22:12:11.359Z,9.30
2018-04-02T22:14:40.845Z,9.40
2018-04-02T22:17:09.560Z,9.30
2018-04-02T22:19:38.807Z,9.40
2018-04-02T22:22:07.518Z,9.40
2018-04-02T22:24:36.340Z,9.40
2018-04-02T22:27:05.826Z,9.50
2018-04-02T22:29:34.556Z,9.40
2018-04-02T22:32:03.272Z,9.50
2018-04-02T22:34:31.993Z,9.50
2018-04-02T22:37:00.485Z,9.50
2018-04-02T22:39:29.739Z,9.50
2018-04-02T22:41:58.455Z,9.50
2018-04-02T22:44:27.179Z,9.60
2018-04-02T22:46:55.895Z,9.60
2018-04-02T22:49:24.615Z,9.60
2018-04-02T22:51:53.332Z,9.50
2018-04-02T22:54:22.574Z,9.60
2018-04-02T22:56:51.301Z,9.50
2018-04-02T22:59:20.019Z,9.60
2018-04-02T23:01:48.744Z,9.60
2018-04-02T23:04:17.462Z,9.60
2018-04-02T23:06:46.189Z,9.60
2018-04-02T23:09:14.904Z,9.70
2018-04-02T23:11:43.623Z,9.80
2018-04-02T23:14:13.154Z,9.80
2018-04-02T23:16:41.873Z,9.80
2018-04-02T23:19:10.605Z,9.80
2018-04-02T23:21:40.109Z,9.80
2018-04-02T23:24:08.819Z,9.80
2018-04-02T23:26:38.305Z,9.90
2018-04-02T23:29:07.066Z,9.90
2018-04-02T23:31:35.790Z,9.90
2018-04-02T23:34:04.512Z,9.90
2018-04-02T23:36:33.247Z,9.90
2018-04-02T23:39:01.998Z,10.00
2018-04-02T23:41:31.331Z,10.00
2018-04-02T23:44:00.082Z,10.00
2018-04-02T23:46:29.154Z,10.00
2018-04-02T23:48:58.639Z,10.00
2018-04-02T23:51:27.374Z,10.00
2018-04-02T23:53:56.103Z,10.10
2018-04-02T23:56:24.827Z,10.10
2018-04-02T23:58:57.284Z,10.10
